Flight Track Log - Related Links

Times and Time Zones

All times are in EDT time to prevent confusion due to time zone crossing. See the TAM3131 flight status page for this flight to view local times or setup timezone preferences in your user account.


Time Position Orientation Groundspeed Altitude Reporting Facility
EDT Latitude Longitude Course Direction KTS MPH feet Rate Location/Type
Thu 10:26:00 AM -21.1327 -41.8687 239° Southwest  Level Estimated
Thu 10:27:00 AM -21.1739 -41.9445 240° Southwest  Level Estimated
Thu 10:28:00 AM -21.2152 -42.0203 240° Southwest  Level Estimated
Thu 10:29:00 AM -21.2564 -42.0962 240° Southwest  Level Estimated
Thu 10:30:00 AM -21.2976 -42.1722 240° Southwest  Level Estimated
Thu 10:31:00 AM -21.3387 -42.2481 240° Southwest  Level Estimated
Thu 10:32:00 AM -21.3798 -42.3242 240° Southwest  Level Estimated
Thu 10:33:00 AM -21.4209 -42.4002 240° Southwest  Level Estimated
Thu 10:34:00 AM -21.4620 -42.4763 240° Southwest  Level Estimated
Thu 10:35:00 AM -21.5030 -42.5525 240° Southwest  Level Estimated
Thu 10:36:00 AM -21.5439 -42.6287 240° Southwest  Level Estimated
Thu 10:37:00 AM -21.5849 -42.7049 240° Southwest  Level Estimated
Thu 10:38:00 AM -21.6258 -42.7812 240° Southwest  Level Estimated
Thu 10:39:00 AM -21.6667 -42.8575 240° Southwest  Level Estimated
Thu 10:40:00 AM -21.7075 -42.9338 240° Southwest  Level Estimated
Thu 10:41:00 AM -21.7483 -43.0103 240° Southwest  Level Estimated
Thu 10:42:00 AM -21.7891 -43.0867 240° Southwest  Level Estimated
Thu 10:43:00 AM -21.8298 -43.1632 240° Southwest  Level Estimated
Thu 10:44:00 AM -21.8705 -43.2397 240° Southwest  Level Estimated
Thu 10:45:00 AM -21.9112 -43.3163 240° Southwest  Level Estimated
Thu 10:46:00 AM -21.9518 -43.3929 240° Southwest  Level Estimated
Thu 10:47:00 AM -21.9924 -43.4696 240° Southwest  Level Estimated
Thu 10:48:00 AM -22.0329 -43.5463 240° Southwest  Level Estimated
Thu 10:49:00 AM -22.0735 -43.6231 240° Southwest  Level Estimated
Thu 10:50:00 AM -22.1139 -43.6999 240° Southwest  Level Estimated
Thu 10:51:00 AM -22.1544 -43.7767 240° Southwest  Level Estimated
Thu 10:52:00 AM -22.1948 -43.8536 240° Southwest  Level Estimated
Thu 10:53:00 AM -22.2352 -43.9305 240° Southwest  Level Estimated
Thu 10:54:00 AM -22.2755 -44.0075 240° Southwest  Level Estimated
Thu 10:55:00 AM -22.3158 -44.0845 240° Southwest  Level Estimated
Thu 10:56:00 AM -22.3561 -44.1616 241° Southwest  Level Estimated
Thu 10:57:00 AM -22.3963 -44.2387 241° Southwest  Level Estimated
Thu 10:58:00 AM -22.4365 -44.3158 241° Southwest  Level Estimated
Thu 10:59:00 AM -22.4767 -44.3931 241° Southwest  Level Estimated
Thu 11:00:00 AM -22.5168 -44.4703 241° Southwest  Level Estimated
Thu 11:01:00 AM -22.5569 -44.5476 241° Southwest  Level Estimated
Thu 11:02:00 AM -22.5969 -44.6249 241° Southwest  Level Estimated
Thu 11:03:00 AM -22.6369 -44.7023 241° Southwest  Level Estimated
Thu 11:04:00 AM -22.6769 -44.7797 241° Southwest  Level Estimated
Thu 11:05:00 AM -22.7168 -44.8572 241° Southwest  Level Estimated
Thu 11:06:00 AM -22.7567 -44.9347 241° Southwest  Level Estimated
Thu 11:07:00 AM -22.7966 -45.0122 241° Southwest  Level Estimated
Thu 11:08:00 AM -22.8364 -45.0899 241° Southwest  Level Estimated
Thu 11:09:00 AM -22.8762 -45.1675 241° Southwest  Level Estimated
Thu 11:10:00 AM -22.9159 -45.2452 241° Southwest  Level Estimated
Thu 11:11:00 AM -22.9556 -45.3229 241° Southwest  Level Estimated
Thu 11:12:00 AM -22.9953 -45.4007 241° Southwest  Level Estimated
Thu 11:13:00 AM -23.0349 -45.4785 241° Southwest  Level Estimated
Thu 11:14:00 AM -23.0745 -45.5564 241° Southwest  Level Estimated
Thu 11:15:00 AM -23.1141 -45.6343 241° Southwest  Level Estimated
Thu 11:16:00 AM -23.1536 -45.7123 241° Southwest  Level Estimated
Thu 11:17:00 AM -23.1931 -45.7903 241° Southwest  Level Estimated
Thu 11:18:00 AM -23.2325 -45.8684 241° Southwest  Level Estimated
Thu 11:19:00 AM -23.2719 -45.9465 241° Southwest  Level Estimated
Thu 11:20:00 AM -23.3113 -46.0247 241° Southwest  Level Estimated
Thu 11:21:00 AM -23.3506 -46.1029 241° Southwest  Level Estimated
Thu 11:22:00 AM -23.3899 -46.1811 241° Southwest  Level Estimated
Thu 11:23:00 AM -23.4291 -46.2594 241° Southwest  Level Estimated
Thu 11:24:00 AM -23.4684 -46.3377 241° Southwest  Level Estimated
Thu 11:25:00 AM -23.5075 -46.4161 241° Southwest  Level Estimated
Thu 11:26:00 AM -23.5467 -46.4946 241° Southwest  Level Estimated
Thu 11:27:00 AM -23.5858 -46.5730 241° Southwest  Level Estimated
Thu 11:28:00 AM -23.6248 -46.6516 241° Southwest  Level Estimated
Thu 11:29:00 AM -23.6267 -46.6554 242° Southwest  Level Estimated
Thu 11:30:00 AM -23.6267 -46.6554 114° Southeast  Level Estimated
Thu 11:31:00 AM -23.6267 -46.6554 114° Southeast  Level Estimated
Thu 11:32:00 AM -23.6267 -46.6554 114° Southeast  Level Estimated
Thu 11:33:00 AM -23.6267 -46.6554 114° Southeast  Level Estimated
Thu 11:34:00 AM -23.6267 -46.6554 114° Southeast  Level Estimated
Thu 11:35:00 AM -23.6267 -46.6554 114° Southeast  Level Estimated
Thu 11:36:00 AM -23.6267 -46.6554 114° Southeast  Level Estimated
Thu 11:37:00 AM -23.6267 -46.6554 114° Southeast  Level Estimated
Thu 11:38:00 AM -23.6267 -46.6554 114° Southeast  Level Estimated
Thu 11:39:00 AM -23.6267 -46.6554 114° Southeast  Level Estimated
Thu 11:40:00 AM -23.6267 -46.6554 114° Southeast  Level Estimated
Thu 11:41:00 AM -23.6267 -46.6554 114° Southeast  Level Estimated
Thu 11:42:00 AM -23.6267 -46.6554 114° Southeast  Level Estimated
Thu 11:43:00 AM -23.6267 -46.6554 114° Southeast  Level Estimated
Thu 11:44:00 AM -23.6267 -46.6554 114° Southeast  Level Estimated

Login

Don't have an account? Register now (free) for customized features, flight alerts, and more!